| time (UTC) | temp F | wind direction | speed knots | gust knots | rain 1hr in | rain 24hr in | rain mn in | humidity % | barometer mb |
| 20260506134523 | 49 | 17 | 5.2 | 12.2 | 0.00 | 0.00 | 0.00 | 83 | 1014.5 |
| 20260506133016 | 49 | 40 | 7.0 | 13.9 | 0.00 | 0.00 | 0.00 | 83 | 1014.0 |
| 20260506131535 | 49 | 45 | 5.2 | 13.9 | 0.00 | 0.00 | 0.00 | 82 | 1013.9 |
| 20260506130012 | 50 | 47 | 7.0 | 13.9 | 0.00 | 0.00 | 0.00 | 82 | 1013.7 |
| 20260506124506 | 49 | 24 | 7.0 | 13.9 | 0.00 | 0.00 | 0.00 | 82 | 1013.1 |
| 20260506123003 | 49 | 39 | 9.6 | 14.8 | 0.00 | 0.00 | 0.00 | 83 | 1012.3 |
| 20260506121602 | 49 | 17 | 6.1 | 15.6 | 0.00 | 0.00 | 0.00 | 83 | 1011.9 |
| 20260506120057 | 49 | 42 | 7.8 | 14.8 | 0.00 | 0.00 | 0.00 | 83 | 1011.5 |
| 20260506114553 | 50 | 32 | 5.2 | 13.9 | 0.00 | 0.00 | 0.00 | 81 | 1011.3 |
| 20260506113049 | 50 | 5 | 3.5 | 13.9 | 0.00 | 0.00 | 0.00 | 80 | 1011.3 |
| 20260506111546 | 50 | 21 | 4.3 | 14.8 | 0.00 | 0.00 | 0.00 | 81 | 1011.0 |
| 20260506110043 | 50 | 24 | 2.6 | 13.0 | 0.00 | 0.00 | 0.00 | 80 | 1010.9 |
| 20260506104546 | 51 | 26 | 5.2 | 12.2 | 0.00 | 0.00 | 0.00 | 79 | 1010.8 |
| 20260506103039 | 51 | 27 | 4.3 | 12.2 | 0.00 | 0.00 | 0.00 | 79 | 1010.9 |
| 20260506101533 | 51 | 29 | 4.3 | 10.4 | 0.00 | 0.00 | 0.00 | 78 | 1010.9 |
| 20260506100036 | 51 | 34 | 3.5 | 9.6 | 0.00 | 0.00 | 0.00 | 78 | 1010.5 |
| 20260506094534 | 52 | 23 | 4.3 | 7.8 | 0.00 | 0.00 | 0.00 | 80 | 1010.5 |
| 20260506093033 | 51 | 37 | 2.6 | 7.0 | 0.00 | 0.00 | 0.00 | 80 | 1010.2 |
| 20260506091526 | 51 | 50 | 3.5 | 9.6 | 0.00 | 0.00 | 0.00 | 79 | 1010.3 |
| 20260506090020 | 51 | 51 | 3.5 | 7.8 | 0.00 | 0.00 | 0.00 | 79 | 1010.4 |
| 20260506084517 | 52 | 42 | 4.3 | 9.6 | 0.00 | 0.00 | 0.00 | 79 | 1010.4 |
| 20260506083015 | 52 | 15 | 6.1 | 10.4 | 0.00 | 0.00 | 0.00 | 78 | 1009.8 |
| 20260506081511 | 52 | 38 | 3.5 | 9.6 | 0.00 | 0.00 | 0.00 | 77 | 1009.7 |
| 20260506073002 | 53 | 35 | 6.1 | 10.4 | 0.00 | 0.00 | 0.00 | 76 | 1009.7 |
| 20260506071559 | 54 | 42 | 5.2 | 12.2 | 0.00 | 0.00 | 0.00 | 75 | 1009.9 |
| 20260506061545 | 56 | 42 | 7.0 | 12.2 | 0.00 | 0.00 | 0.00 | 71 | 1009.2 |
| 20260506044522 | 61 | 36 | 3.5 | 14.8 | 0.00 | 0.00 | 0.00 | 65 | 1008.2 |
| 20260506043018 | 62 | 12 | 7.0 | 12.2 | 0.00 | 0.00 | 0.00 | 63 | 1008.3 |
| 20260506041517 | 62 | 5 | 3.5 | 9.6 | 0.00 | 0.00 | 0.00 | 61 | 1008.0 |
| 20260506040013 | 63 | 40 | 4.3 | 10.4 | 0.00 | 0.00 | 0.00 | 59 | 1008.0 |
| 20260506034511 | 64 | 34 | 3.5 | 8.7 | 0.00 | 0.00 | 0.00 | 58 | 1007.7 |
| 20260506033007 | 65 | 55 | 4.3 | 10.4 | 0.00 | 0.00 | 0.00 | 56 | 1007.8 |
| 20260506031504 | 66 | 32 | 5.2 | 12.2 | 0.00 | 0.00 | 0.00 | 54 | 1007.5 |
| 20260506030000 | 68 | 36 | 7.0 | 14.8 | 0.00 | 0.00 | 0.00 | 51 | 1007.3 |
| 20260506024602 | 70 | 25 | 6.1 | 12.2 | 0.00 | 0.00 | 0.00 | 48 | 1007.2 |
| 20260506023101 | 71 | 55 | 6.1 | 10.4 | 0.00 | 0.00 | 0.00 | 47 | 1006.9 |
| 20260506021556 | 72 | 44 | 5.2 | 10.4 | 0.00 | 0.00 | 0.00 | 46 | 1006.5 |
| 20260506020054 | 73 | 36 | 4.3 | 10.4 | 0.00 | 0.00 | 0.00 | 44 | 1006.3 |
| 20260506014552 | 74 | 44 | 5.2 | 9.6 | 0.00 | 0.00 | 0.00 | 43 | 1005.8 |
| 20260506013051 | 77 | 17 | 3.5 | 13.9 | 0.00 | 0.00 | 0.00 | 40 | 1005.7 |
| 20260506011549 | 78 | 42 | 4.3 | 8.7 | 0.00 | 0.00 | 0.00 | 37 | 1005.1 |
| 20260506010049 | 79 | 13 | 2.6 | 7.0 | 0.00 | 0.00 | 0.00 | 36 | 1005.2 |
| 20260506004547 | 80 | 19 | 3.5 | 7.0 | 0.00 | 0.00 | 0.00 | 35 | 1005.0 |
| 20260506003046 | 80 | 28 | 1.7 | 7.8 | 0.00 | 0.00 | 0.00 | 33 | 1005.0 |
| 20260506001549 | 81 | 14 | 3.5 | 7.8 | 0.00 | 0.00 | 0.00 | 31 | 1004.8 |
| 20260506000045 | 83 | 23 | 0.9 | 10.4 | 0.00 | 0.00 | 0.00 | 30 | 1004.6 |
| 20260505234549 | 85 | 165 | 6.1 | 14.8 | 0.00 | 0.00 | 0.00 | 22 | 1004.3 |
| 20260505233043 | 85 | 159 | 7.0 | 16.5 | 0.00 | 0.00 | 0.00 | 22 | 1004.1 |
| 20260505231552 | 86 | 162 | 9.6 | 18.2 | 0.00 | 0.00 | 0.00 | 21 | 1003.9 |
| 20260505230054 | 87 | 166 | 10.4 | 17.4 | 0.00 | 0.00 | 0.00 | 21 | 1003.9 |
| 20260505224542 | 88 | 181 | 5.2 | 13.9 | 0.00 | 0.00 | 0.00 | 22 | 1003.3 |
| 20260505223039 | 88 | 177 | 9.6 | 21.7 | 0.00 | 0.00 | 0.00 | 21 | 1003.8 |
| 20260505221539 | 89 | 167 | 11.3 | 27.8 | 0.00 | 0.00 | 0.00 | 20 | 1003.7 |
| 20260505220037 | 89 | 159 | 11.3 | 19.1 | 0.00 | 0.00 | 0.00 | 21 | 1003.5 |
| 20260505214536 | 89 | 167 | 7.8 | 16.5 | 0.00 | 0.00 | 0.00 | 22 | 1003.7 |
| 20260505213042 | 90 | 158 | 12.2 | 19.1 | 0.00 | 0.00 | 0.00 | 20 | 1003.7 |
| 20260505211534 | 90 | 173 | 7.0 | 13.0 | 0.00 | 0.00 | 0.00 | 21 | 1003.3 |
| 20260505210035 | 89 | 175 | 7.0 | 14.8 | 0.00 | 0.00 | 0.00 | 21 | 1003.8 |
| 20260505204531 | 90 | 185 | 7.8 | 16.5 | 0.00 | 0.00 | 0.00 | 20 | 1004.0 |
| 20260505203029 | 91 | 176 | 9.6 | 17.4 | 0.00 | 0.00 | 0.00 | 20 | 1003.8 |
| 20260505201527 | 91 | 163 | 8.7 | 16.5 | 0.00 | 0.00 | 0.00 | 19 | 1003.9 |
| 20260505200026 | 93 | 150 | 7.8 | 13.9 | 0.00 | 0.00 | 0.00 | 19 | 1003.8 |
| 20260505194521 | 93 | 173 | 11.3 | 31.3 | 0.00 | 0.00 | 0.00 | 19 | 1003.4 |
| 20260505193017 | 91 | 175 | 6.1 | 13.0 | 0.00 | 0.00 | 0.00 | 21 | 1003.9 |
| 20260505191515 | 91 | 115 | 7.0 | 17.4 | 0.00 | 0.00 | 0.00 | 21 | 1004.0 |
| 20260505190012 | 90 | 170 | 7.8 | 14.8 | 0.00 | 0.00 | 0.00 | 21 | 1004.1 |
| 20260505184508 | 90 | 174 | 7.0 | 11.3 | 0.00 | 0.00 | 0.00 | 22 | 1004.4 |
| 20260505183003 | 90 | 155 | 8.7 | 15.6 | 0.00 | 0.00 | 0.00 | 22 | 1004.5 |
| 20260505181601 | 88 | 156 | 9.6 | 15.6 | 0.00 | 0.00 | 0.00 | 24 | 1004.7 |
| 20260505180106 | 87 | 132 | 5.2 | 12.2 | 0.00 | 0.00 | 0.00 | 27 | 1004.9 |
| 20260505174609 | 87 | 184 | 5.2 | 11.3 | 0.00 | 0.00 | 0.00 | 28 | 1004.8 |
| 20260505173051 | 86 | 160 | 6.1 | 13.0 | 0.00 | 0.00 | 0.00 | 32 | 1004.9 |
| 20260505171550 | 84 | 186 | 4.3 | 13.9 | 0.00 | 0.00 | 0.00 | 35 | 1005.0 |
| 20260505170046 | 84 | 161 | 7.0 | 13.0 | 0.00 | 0.00 | 0.00 | 36 | 1005.1 |
| 20260505164543 | 82 | 177 | 4.3 | 13.0 | 0.00 | 0.00 | 0.00 | 40 | 1005.0 |
| 20260505163039 | 82 | 153 | 4.3 | 14.8 | 0.00 | 0.00 | 0.00 | 42 | 1005.1 |
| 20260505161537 | 81 | 162 | 7.8 | 19.1 | 0.00 | 0.00 | 0.00 | 46 | 1005.0 |
| 20260505153024 | 76 | 157 | 10.4 | 15.6 | 0.00 | 0.00 | 0.00 | 57 | 1004.5 |
| 20260505151521 | 75 | 158 | 11.3 | 18.2 | 0.00 | 0.00 | 0.00 | 58 | 1004.4 |